Terminal Aerodrome Forecast
Issued by NWS

Home | Current Version | Previous Version | Text Only | Print | Product List | Glossary On
Versions: 1 2 3 4 5 6 7 8 9 10 11 12 13 14 15 16 17 18 19 20 21 22 23 24
000
FTUS44 KOUN 200538
TAFWWR
TAF
KWWR 200538Z 2006/2106 18014KT P6SM FEW120 SCT250
     FM200900 23009KT P6SM SCT050 SCT250
     FM201400 36007KT P6SM SCT050
     FM201900 06010KT P6SM SCT050=

USA.gov is the U.S. government's official web portal to all federal, state and local government web resources and services.